Skyfall — D5IC2 — position and weather

sailwx.info

Track history (hours):
 
Tides and Currents Weather Stations Pressure Air Temp Water Temp Dewpoint Dewpoint Depression Visibility Wind Speed Wind Dir Waves Ship Positions

Skyfall

Last reported at 2017-Dec-16 00:25 UTC. Time now 2018-Feb-21 05:41 UTC.
Position N 09°38' W 016°42'.
Warning: this ship's position is months out of date.

Length 199 m; draft 10.4 m.

Type: Cargo ship. MMSI: 636016848.

Date/timePositionNaut miles runAvg speedWind from/ knotsBaromVisibWave heightAir tempDewpointWater temp
2017-Dec-16 00:25N 09°38' W 016°42'2612.4
2017-Dec-15 22:19N 09°17' W 016°26'712.6
2017-Dec-15 21:43N 09°11' W 016°22'312.6
2017-Dec-15 21:28N 09°09' W 016°20'2812.6
2017-Dec-15 19:15N 08°46' W 016°03'312.6
2017-Dec-15 19:00N 08°44' W 016°01'612.6
2017-Dec-15 18:30N 08°38' W 015°57'612.6
2017-Dec-15 18:01N 08°34' W 015°53'712.5
2017-Dec-15 17:26N 08°28' W 015°49'712.4
2017-Dec-15 16:51N 08°22' W 015°45'1812.6
2017-Dec-15 15:28N 08°08' W 015°34'5012.3
2017-Dec-15 11:24N 07°28' W 015°04'6812.4
2017-Dec-15 05:55N 06°34' W 014°23'512.6
2017-Dec-15 05:30N 06°30' W 014°20'  
Track history (hours):
 
Tides and Currents Weather Stations Pressure Air Temp Water Temp Dewpoint Dewpoint Depression Visibility Wind Speed Wind Dir Waves Ship Positions

Skyfall

Last reported at 2017-Dec-16 00:25 UTC. Time now 2018-Feb-21 05:41 UTC.
Position N 09°38' W 016°42'.
Warning: this ship's position is months out of date.

Length 199 m; draft 10.4 m.

Type: Cargo ship. MMSI: 636016848.

Date/timePositionNaut miles runAvg speedWind from/ knotsBaromVisibWave heightAir tempDewpointWater temp
2017-Dec-16 00:25N 09°38' W 016°42'2612.4
2017-Dec-15 22:19N 09°17' W 016°26'712.6
2017-Dec-15 21:43N 09°11' W 016°22'312.6
2017-Dec-15 21:28N 09°09' W 016°20'2812.6
2017-Dec-15 19:15N 08°46' W 016°03'312.6
2017-Dec-15 19:00N 08°44' W 016°01'612.6
2017-Dec-15 18:30N 08°38' W 015°57'612.6
2017-Dec-15 18:01N 08°34' W 015°53'712.5
2017-Dec-15 17:26N 08°28' W 015°49'712.4
2017-Dec-15 16:51N 08°22' W 015°45'1812.6
2017-Dec-15 15:28N 08°08' W 015°34'5012.3
2017-Dec-15 11:24N 07°28' W 015°04'6812.4
2017-Dec-15 05:55N 06°34' W 014°23'512.6
2017-Dec-15 05:30N 06°30' W 014°20'  

Dump ship's entire track history